Time;durP1;ratioP1;P1;durP2;ratioP2;P2;SDS_P1;SDS_P2;PMS_P1;PMS_P2;Temp;Humidity;BMP_temperature;BMP_pressure;BME280_temperature;BME280_humidity;BME280_pressure;Samples;Min_cycle;Max_cycle;Signal;HPM_P1;HPM_P2
2021/12/16 00:34:03;;;;;;;44.83;27.53;;;;;;;;;;4464390;32;20921;-58
2021/12/16 00:36:37;;;;;;;48.60;24.17;;;;;;;;;;4464708;32;20203;-57
2021/12/16 00:39:07;;;;;;;37.10;20.97;;;;;;;;;;4463215;32;20228;-57
2021/12/16 00:41:33;;;;;;;26.33;14.80;;;;;;;;;;4462078;32;20236;-58
2021/12/16 00:44:09;;;;;;;18.77;11.50;;;;;;;;;;4463285;32;20228;-58
2021/12/16 00:54:30;;;;;;;24.43;11.37;;;;;;;;;;4463754;32;20254;-57
2021/12/16 00:57:02;;;;;;;24.07;12.30;;;;;;;;;;4462725;32;20239;-57
2021/12/16 00:59:33;;;;;;;13.90;8.97;;;;;;;;;;4448176;32;20270;-57
2021/12/16 01:34:44;;;;;;;27.43;14.17;;;;;;;;;;4460188;32;20314;-58
2021/12/16 01:50:48;;;;;;;15.87;9.57;;;;;;;;;;4460393;32;20674;-57
2021/12/16 01:55:59;;;;;;;38.83;23.53;;;;;;;;;;4462777;32;20359;-59
2021/12/16 01:58:28;;;;;;;45.80;25.27;;;;;;;;;;4454702;32;20690;-58
2021/12/16 02:01:16;;;;;;;26.73;16.63;;;;;;;;;;4447540;32;20212;-58
2021/12/16 02:03:49;;;;;;;31.93;15.10;;;;;;;;;;4446548;32;20262;-57
2021/12/16 02:08:52;;;;;;;33.20;20.60;;;;;;;;;;4463703;32;20269;-57
2021/12/16 02:11:29;;;;;;;50.93;24.87;;;;;;;;;;4467979;32;20324;-57
2021/12/16 02:34:03;;;;;;;14.63;7.20;;;;;;;;;;4419583;32;20228;-58
2021/12/16 02:36:30;;;;;;;14.50;7.13;;;;;;;;;;4453090;32;20207;-57
2021/12/16 02:39:00;;;;;;;13.10;9.03;;;;;;;;;;4457236;32;20330;-58
2021/12/16 02:41:27;;;;;;;19.50;10.97;;;;;;;;;;4452962;32;20302;-57
2021/12/16 02:44:09;;;;;;;15.27;8.93;;;;;;;;;;4452891;32;20209;-58
2021/12/16 02:49:20;;;;;;;12.80;9.30;;;;;;;;;;4467544;32;20246;-58
2021/12/16 02:51:46;;;;;;;27.93;14.83;;;;;;;;;;4466734;32;20224;-57
2021/12/16 02:54:11;;;;;;;25.67;15.40;;;;;;;;;;4468570;32;20223;-57
2021/12/16 02:56:37;;;;;;;27.83;15.93;;;;;;;;;;4467957;32;20203;-57
2021/12/16 02:59:04;;;;;;;25.53;14.60;;;;;;;;;;4461634;32;20608;-57
2021/12/16 03:01:36;;;;;;;24.37;14.13;;;;;;;;;;4467216;32;20299;-58
2021/12/16 03:04:05;;;;;;;28.73;16.67;;;;;;;;;;4468661;32;20221;-57
2021/12/16 03:06:32;;;;;;;22.87;13.67;;;;;;;;;;4468160;32;20340;-57
2021/12/16 03:09:00;;;;;;;22.60;13.00;;;;;;;;;;4451654;32;20249;-57
2021/12/16 03:11:45;;;;;;;24.80;12.43;;;;;;;;;;4452855;32;20302;-57
2021/12/16 03:16:51;;;;;;;26.10;14.53;;;;;;;;;;4452615;32;20188;-58
2021/12/16 03:21:48;;;;;;;23.30;13.70;;;;;;;;;;4465522;32;20204;-57
2021/12/16 03:30:00;;;;;;;20.80;13.33;;;;;;;;;;4465787;32;20265;-58
2021/12/16 03:35:39;;;;;;;28.70;13.67;;;;;;;;;;4421058;32;20288;-57
2021/12/16 03:38:10;;;;;;;21.30;12.73;;;;;;;;;;4450170;32;20361;-58
2021/12/16 03:40:38;;;;;;;20.10;11.30;;;;;;;;;;4465291;32;20660;-58
2021/12/16 03:43:09;;;;;;;24.30;11.67;;;;;;;;;;4463771;32;20266;-57
2021/12/16 03:48:43;;;;;;;28.27;15.03;;;;;;;;;;4465143;32;20311;-58
2021/12/16 03:51:13;;;;;;;31.03;15.73;;;;;;;;;;4465162;32;20204;-58
2021/12/16 03:53:43;;;;;;;30.33;15.43;;;;;;;;;;4464307;32;20216;-57
2021/12/16 03:56:10;;;;;;;24.80;13.37;;;;;;;;;;4465249;32;20272;-57
2021/12/16 03:58:36;;;;;;;22.03;12.33;;;;;;;;;;4464611;32;20254;-57
2021/12/16 04:01:07;;;;;;;28.40;12.57;;;;;;;;;;4465336;32;20208;-56
2021/12/16 04:03:32;;;;;;;23.43;13.27;;;;;;;;;;4465396;32;20334;-58
2021/12/16 04:05:58;;;;;;;21.73;12.83;;;;;;;;;;4464603;32;20330;-58
2021/12/16 04:08:24;;;;;;;34.63;20.57;;;;;;;;;;4463869;32;20247;-58
2021/12/16 04:11:24;;;;;;;35.63;21.07;;;;;;;;;;4464914;32;20264;-58
2021/12/16 04:13:57;;;;;;;30.00;14.63;;;;;;;;;;4454201;32;20266;-58
2021/12/16 04:16:34;;;;;;;20.67;11.87;;;;;;;;;;4464517;32;20268;-57
2021/12/16 04:19:09;;;;;;;24.83;13.00;;;;;;;;;;4464958;32;20270;-58
2021/12/16 04:21:37;;;;;;;18.10;10.60;;;;;;;;;;4464437;32;20230;-58
2021/12/16 04:24:03;;;;;;;17.43;10.97;;;;;;;;;;4464958;32;20565;-57
2021/12/16 04:26:29;;;;;;;19.50;12.93;;;;;;;;;;4464742;32;20289;-58
2021/12/16 04:28:56;;;;;;;22.10;12.53;;;;;;;;;;4464949;32;20227;-60
2021/12/16 04:31:21;;;;;;;25.30;14.23;;;;;;;;;;4464649;32;20577;-58
2021/12/16 04:33:47;;;;;;;22.80;12.87;;;;;;;;;;4462709;32;20224;-58
2021/12/16 04:36:14;;;;;;;24.03;12.43;;;;;;;;;;4453011;32;20318;-58
2021/12/16 04:38:42;;;;;;;30.50;14.83;;;;;;;;;;4464386;32;20330;-58
2021/12/16 04:41:11;;;;;;;23.77;12.80;;;;;;;;;;4463825;32;20227;-58
2021/12/16 04:43:40;;;;;;;21.60;14.17;;;;;;;;;;4464484;32;20216;-59
2021/12/16 04:46:22;;;;;;;29.13;15.57;;;;;;;;;;4463251;32;20617;-58
2021/12/16 04:48:51;;;;;;;24.33;16.37;;;;;;;;;;4464531;32;20246;-57
2021/12/16 04:51:18;;;;;;;35.50;19.77;;;;;;;;;;4462516;32;20307;-57
2021/12/16 04:53:44;;;;;;;39.23;21.17;;;;;;;;;;4464307;32;20258;-58
2021/12/16 04:56:12;;;;;;;41.90;19.50;;;;;;;;;;4464419;32;20311;-59
2021/12/16 04:58:40;;;;;;;36.67;20.17;;;;;;;;;;4464391;32;20231;-58
2021/12/16 05:01:06;;;;;;;38.57;21.13;;;;;;;;;;4461966;32;20314;-58
2021/12/16 05:03:33;;;;;;;42.47;22.27;;;;;;;;;;4464323;32;20216;-59
2021/12/16 05:05:59;;;;;;;44.47;21.27;;;;;;;;;;4464014;32;20235;-57
2021/12/16 05:08:26;;;;;;;39.67;21.47;;;;;;;;;;4464226;32;20303;-58
2021/12/16 05:10:55;;;;;;;35.60;20.50;;;;;;;;;;4449155;32;20569;-58
2021/12/16 05:13:24;;;;;;;35.43;23.00;;;;;;;;;;4448562;32;20286;-58
2021/12/16 05:15:50;;;;;;;46.77;23.83;;;;;;;;;;4462256;32;20274;-57
2021/12/16 05:18:24;;;;;;;44.47;27.30;;;;;;;;;;4463712;32;20730;-57
2021/12/16 05:20:50;;;;;;;63.93;28.63;;;;;;;;;;4463327;32;20417;-57
2021/12/16 05:28:28;;;;;;;81.73;38.83;;;;;;;;;;4463938;32;20208;-59
2021/12/16 05:30:54;;;;;;;67.27;37.20;;;;;;;;;;4461386;32;20258;-58
2021/12/16 05:33:22;;;;;;;55.33;31.43;;;;;;;;;;4463467;32;20310;-58
2021/12/16 05:35:48;;;;;;;51.70;31.67;;;;;;;;;;4462314;32;20226;-58
2021/12/16 05:38:15;;;;;;;53.73;26.70;;;;;;;;;;4463318;32;20245;-57
2021/12/16 05:40:41;;;;;;;40.47;24.57;;;;;;;;;;4463602;32;20283;-57
2021/12/16 05:43:10;;;;;;;43.80;22.10;;;;;;;;;;4463134;32;20211;-58
2021/12/16 05:45:37;;;;;;;37.20;20.83;;;;;;;;;;4463537;32;20828;-58
2021/12/16 05:48:06;;;;;;;58.47;23.10;;;;;;;;;;4462787;32;20286;-56
2021/12/16 05:50:35;;;;;;;53.87;23.10;;;;;;;;;;4462825;32;20587;-57
2021/12/16 05:53:00;;;;;;;45.87;24.33;;;;;;;;;;4462763;32;20283;-57
2021/12/16 05:55:27;;;;;;;62.07;25.87;;;;;;;;;;4463690;32;20312;-58
2021/12/16 05:57:53;;;;;;;40.47;22.33;;;;;;;;;;4463345;32;20330;-58
2021/12/16 06:00:32;;;;;;;46.63;21.87;;;;;;;;;;4463384;32;20298;-57
2021/12/16 06:02:57;;;;;;;40.57;22.37;;;;;;;;;;4463163;32;20702;-58
2021/12/16 06:05:23;;;;;;;36.47;21.13;;;;;;;;;;4462358;32;20299;-59
2021/12/16 06:07:49;;;;;;;49.90;23.03;;;;;;;;;;4463334;32;20208;-58
2021/12/16 06:13:02;;;;;;;66.53;35.73;;;;;;;;;;4462854;32;20330;-58
2021/12/16 06:28:50;;;;;;;79.80;38.13;;;;;;;;;;4462667;32;20219;-57
2021/12/16 06:31:16;;;;;;;53.70;26.60;;;;;;;;;;4462107;32;20360;-57
2021/12/16 06:33:41;;;;;;;57.33;31.50;;;;;;;;;;4462990;32;20255;-57
2021/12/16 06:36:07;;;;;;;59.43;30.20;;;;;;;;;;4463386;32;20275;-58
2021/12/16 06:38:33;;;;;;;49.00;27.77;;;;;;;;;;4462518;32;20464;-57
2021/12/16 06:40:58;;;;;;;46.07;27.10;;;;;;;;;;4461687;32;20746;-58
2021/12/16 06:43:24;;;;;;;50.57;24.80;;;;;;;;;;4461243;32;20291;-58
2021/12/16 06:45:52;;;;;;;62.00;28.87;;;;;;;;;;4460442;32;20224;-60
2021/12/16 06:48:24;;;;;;;47.97;27.50;;;;;;;;;;4460953;32;20239;-59
2021/12/16 06:50:55;;;;;;;66.10;37.63;;;;;;;;;;4459909;32;20275;-58
2021/12/16 06:53:45;;;;;;;65.47;35.33;;;;;;;;;;4462284;32;20673;-56
2021/12/16 06:56:22;;;;;;;94.97;48.17;;;;;;;;;;4462034;32;20351;-57
2021/12/16 06:58:51;;;;;;;76.80;40.13;;;;;;;;;;4447553;32;20651;-57
2021/12/16 07:01:48;;;;;;;42.70;25.77;;;;;;;;;;4448493;32;20711;-58
2021/12/16 07:04:12;;;;;;;31.73;20.27;;;;;;;;;;4448151;32;20390;-57
2021/12/16 07:06:39;;;;;;;50.67;26.27;;;;;;;;;;4448095;32;20307;-57
2021/12/16 07:09:13;;;;;;;50.43;26.93;;;;;;;;;;4461519;32;20311;-58
2021/12/16 07:11:52;;;;;;;58.27;30.23;;;;;;;;;;4465504;32;20224;-57
2021/12/16 07:14:23;;;;;;;46.63;28.50;;;;;;;;;;4466022;32;20339;-57
2021/12/16 07:16:52;;;;;;;31.37;18.97;;;;;;;;;;4465681;32;20481;-58
2021/12/16 07:19:18;;;;;;;37.07;22.40;;;;;;;;;;4465276;32;20301;-58
2021/12/16 07:21:44;;;;;;;44.40;22.40;;;;;;;;;;4464799;32;20629;-56
2021/12/16 07:24:14;;;;;;;36.50;23.33;;;;;;;;;;4465479;32;20232;-57
2021/12/16 07:26:40;;;;;;;52.30;26.60;;;;;;;;;;4465167;32;20258;-57
2021/12/16 07:29:08;;;;;;;54.20;28.27;;;;;;;;;;4464516;32;20790;-57
2021/12/16 07:31:36;;;;;;;48.87;26.60;;;;;;;;;;4465327;32;20280;-59
2021/12/16 07:34:03;;;;;;;52.80;28.80;;;;;;;;;;4464360;32;20260;-57
2021/12/16 07:36:30;;;;;;;57.10;30.80;;;;;;;;;;4464213;32;20228;-57
2021/12/16 07:38:56;;;;;;;48.53;28.57;;;;;;;;;;4463146;32;20773;-57
2021/12/16 07:41:26;;;;;;;48.93;31.23;;;;;;;;;;4464918;32;20648;-57
2021/12/16 07:44:09;;;;;;;48.07;25.77;;;;;;;;;;4464203;32;20248;-57
2021/12/16 07:46:38;;;;;;;71.27;33.77;;;;;;;;;;4460252;32;20246;-57
2021/12/16 07:49:11;;;;;;;59.67;30.13;;;;;;;;;;4463367;32;20215;-57
2021/12/16 07:51:37;;;;;;;50.43;25.57;;;;;;;;;;4459570;32;20217;-58
2021/12/16 07:54:04;;;;;;;33.77;21.63;;;;;;;;;;4454830;32;20324;-57
2021/12/16 07:56:30;;;;;;;45.07;22.77;;;;;;;;;;4463309;32;20208;-56
2021/12/16 07:58:56;;;;;;;38.70;20.87;;;;;;;;;;4456912;32;20227;-57
2021/12/16 08:01:23;;;;;;;43.83;25.60;;;;;;;;;;4464177;32;20235;-57
2021/12/16 08:03:49;;;;;;;38.27;20.07;;;;;;;;;;4462840;32;20232;-56
2021/12/16 08:06:21;;;;;;;39.23;20.13;;;;;;;;;;4452399;32;20240;-56
2021/12/16 08:08:48;;;;;;;37.73;19.13;;;;;;;;;;4449117;32;20246;-57
2021/12/16 08:11:14;;;;;;;30.87;20.17;;;;;;;;;;4435969;32;20556;-57
2021/12/16 08:13:40;;;;;;;33.80;18.97;;;;;;;;;;4447822;32;20244;-57
2021/12/16 08:16:06;;;;;;;37.37;20.53;;;;;;;;;;4449634;32;20315;-57
2021/12/16 08:18:31;;;;;;;29.73;18.97;;;;;;;;;;4462133;32;20636;-56
2021/12/16 08:20:57;;;;;;;35.17;16.27;;;;;;;;;;4463358;32;20251;-56
2021/12/16 08:23:23;;;;;;;34.17;20.20;;;;;;;;;;4464174;32;20611;-57
2021/12/16 08:25:50;;;;;;;32.50;18.13;;;;;;;;;;4462861;32;20715;-58
2021/12/16 08:28:16;;;;;;;30.10;17.87;;;;;;;;;;4463890;32;20343;-58
2021/12/16 08:30:45;;;;;;;36.73;19.37;;;;;;;;;;4464718;32;20570;-58
2021/12/16 08:33:12;;;;;;;39.77;19.70;;;;;;;;;;4464270;32;20649;-57
2021/12/16 08:35:40;;;;;;;35.57;19.93;;;;;;;;;;4459099;32;20279;-58
2021/12/16 08:38:08;;;;;;;35.37;21.13;;;;;;;;;;4464207;32;20676;-58
2021/12/16 08:40:34;;;;;;;33.50;18.30;;;;;;;;;;4463956;32;20224;-58
2021/12/16 08:43:00;;;;;;;35.80;21.13;;;;;;;;;;4463939;32;20295;-57
2021/12/16 08:45:31;;;;;;;34.17;20.87;;;;;;;;;;4463882;32;20697;-59
2021/12/16 08:47:58;;;;;;;39.13;23.87;;;;;;;;;;4462174;32;20312;-57
2021/12/16 08:50:28;;;;;;;33.57;20.20;;;;;;;;;;4464344;32;20196;-57
2021/12/16 08:52:54;;;;;;;40.23;22.50;;;;;;;;;;4462880;32;20315;-58
2021/12/16 08:55:20;;;;;;;38.60;23.03;;;;;;;;;;4464466;32;20320;-59
2021/12/16 08:57:46;;;;;;;42.63;24.00;;;;;;;;;;4464493;32;20606;-57
2021/12/16 09:00:18;;;;;;;35.77;21.13;;;;;;;;;;4464453;32;20284;-57
2021/12/16 09:02:43;;;;;;;32.53;18.20;;;;;;;;;;4463809;32;20509;-57
2021/12/16 09:05:09;;;;;;;42.20;30.07;;;;;;;;;;4464527;32;20263;-57
2021/12/16 09:07:35;;;;;;;36.73;19.30;;;;;;;;;;4464293;32;20279;-58
2021/12/16 09:10:00;;;;;;;33.30;18.50;;;;;;;;;;4464025;32;20302;-58
2021/12/16 09:15:04;;;;;;;40.13;20.17;;;;;;;;;;4464260;32;20601;-58
2021/12/16 09:17:30;;;;;;;32.73;18.43;;;;;;;;;;4464339;32;20240;-58
2021/12/16 09:19:55;;;;;;;29.27;16.50;;;;;;;;;;4463558;32;20419;-58
2021/12/16 09:22:25;;;;;;;33.23;18.10;;;;;;;;;;4462528;32;20215;-57
2021/12/16 09:24:52;;;;;;;31.23;17.77;;;;;;;;;;4463672;32;20219;-58
2021/12/16 09:27:19;;;;;;;29.20;17.77;;;;;;;;;;4463678;32;20266;-58
2021/12/16 09:29:45;;;;;;;38.53;18.70;;;;;;;;;;4463902;32;20241;-58
2021/12/16 09:32:11;;;;;;;20.97;14.33;;;;;;;;;;4462909;32;20279;-58
2021/12/16 09:34:39;;;;;;;24.87;14.10;;;;;;;;;;4457677;32;20365;-57
2021/12/16 09:37:04;;;;;;;19.77;13.57;;;;;;;;;;4447536;32;20208;-58
2021/12/16 09:39:31;;;;;;;27.87;13.30;;;;;;;;;;4448127;32;20244;-58
2021/12/16 09:41:58;;;;;;;26.97;13.53;;;;;;;;;;4447411;32;20462;-58
2021/12/16 09:44:26;;;;;;;23.83;14.87;;;;;;;;;;4448330;32;20339;-58
2021/12/16 09:46:54;;;;;;;29.83;18.03;;;;;;;;;;4462316;32;20295;-57
2021/12/16 09:49:20;;;;;;;29.73;17.13;;;;;;;;;;4463660;32;20220;-58
2021/12/16 09:51:48;;;;;;;32.17;18.10;;;;;;;;;;4456963;32;20291;-58
2021/12/16 09:54:20;;;;;;;32.20;19.37;;;;;;;;;;4455940;32;20313;-59
2021/12/16 09:56:48;;;;;;;22.23;11.67;;;;;;;;;;4462982;32;20383;-57
2021/12/16 09:59:15;;;;;;;21.77;11.63;;;;;;;;;;4450818;32;20283;-58
2021/12/16 10:01:43;;;;;;;46.13;25.67;;;;;;;;;;4447736;32;20208;-59
2021/12/16 10:04:13;;;;;;;30.40;18.83;;;;;;;;;;4450292;32;20337;-57
2021/12/16 10:06:40;;;;;;;23.77;13.33;;;;;;;;;;4458955;32;20234;-57
2021/12/16 10:09:08;;;;;;;24.40;15.03;;;;;;;;;;4463071;32;20283;-57
2021/12/16 10:11:36;;;;;;;22.97;13.40;;;;;;;;;;4461998;32;20225;-59
2021/12/16 10:19:23;;;;;;;31.97;15.77;;;;;;;;;;4462575;32;20239;-58
2021/12/16 10:21:50;;;;;;;35.67;18.43;;;;;;;;;;4460865;32;20543;-58
2021/12/16 10:24:25;;;;;;;37.93;19.17;;;;;;;;;;4461318;32;20290;-58
2021/12/16 10:27:07;;;;;;;40.60;19.37;;;;;;;;;;4462960;32;20282;-57
2021/12/16 10:29:38;;;;;;;26.13;12.67;;;;;;;;;;4462603;32;20721;-59
2021/12/16 10:32:06;;;;;;;32.00;13.27;;;;;;;;;;4466755;32;20199;-57
2021/12/16 10:34:32;;;;;;;28.43;15.63;;;;;;;;;;4454950;32;20280;-58
2021/12/16 10:36:59;;;;;;;32.17;14.90;;;;;;;;;;4465247;32;20321;-57
2021/12/16 10:39:28;;;;;;;34.13;15.90;;;;;;;;;;4465916;32;20693;-58
2021/12/16 10:42:06;;;;;;;35.00;17.40;;;;;;;;;;4465171;32;20236;-58
2021/12/16 10:44:35;;;;;;;26.83;14.53;;;;;;;;;;4465806;32;20244;-58
2021/12/16 10:47:13;;;;;;;22.43;10.13;;;;;;;;;;4465081;32;20239;-58
2021/12/16 10:49:50;;;;;;;17.47;9.93;;;;;;;;;;4466696;32;20224;-59
2021/12/16 10:52:26;;;;;;;14.50;8.97;;;;;;;;;;4465821;32;20354;-59
2021/12/16 10:54:54;;;;;;;18.97;11.73;;;;;;;;;;4462639;32;20273;-57
2021/12/16 10:57:30;;;;;;;26.10;12.73;;;;;;;;;;4451938;32;20216;-57
2021/12/16 11:00:06;;;;;;;15.73;10.17;;;;;;;;;;4465845;32;20322;-58
2021/12/16 11:02:34;;;;;;;14.83;9.20;;;;;;;;;;4463336;32;20607;-58
2021/12/16 11:05:02;;;;;;;21.53;9.97;;;;;;;;;;4465009;32;20212;-56
2021/12/16 11:07:39;;;;;;;17.63;10.17;;;;;;;;;;4465318;32;20501;-57
2021/12/16 11:10:20;;;;;;;14.93;9.70;;;;;;;;;;4466360;32;20294;-56
2021/12/16 11:13:02;;;;;;;18.53;11.07;;;;;;;;;;4464992;32;20277;-57
2021/12/16 11:15:40;;;;;;;18.27;10.33;;;;;;;;;;4465828;32;20498;-60
2021/12/16 11:18:15;;;;;;;17.40;10.17;;;;;;;;;;4466121;32;20302;-56
2021/12/16 11:20:55;;;;;;;14.77;8.93;;;;;;;;;;4465460;32;20207;-58
2021/12/16 11:23:32;;;;;;;16.77;9.33;;;;;;;;;;4464278;32;20278;-56
2021/12/16 11:26:18;;;;;;;17.30;8.67;;;;;;;;;;4450362;32;20526;-56
2021/12/16 11:28:49;;;;;;;13.60;8.93;;;;;;;;;;4451113;32;20232;-57
2021/12/16 11:31:24;;;;;;;21.77;10.90;;;;;;;;;;4450798;32;20262;-57
2021/12/16 11:33:59;;;;;;;17.50;10.97;;;;;;;;;;4465377;32;20271;-57
2021/12/16 11:36:44;;;;;;;21.57;11.63;;;;;;;;;;4449931;32;20206;-58
2021/12/16 11:39:24;;;;;;;36.60;16.43;;;;;;;;;;4457771;32;20228;-57
2021/12/16 11:42:07;;;;;;;54.27;22.93;;;;;;;;;;4463338;32;20271;-57
2021/12/16 11:44:38;;;;;;;70.53;33.40;;;;;;;;;;4463387;32;20232;-57
2021/12/16 11:47:10;;;;;;;27.90;12.00;;;;;;;;;;4464057;32;20204;-57
2021/12/16 11:49:39;;;;;;;22.70;12.63;;;;;;;;;;4464304;32;20455;-58
2021/12/16 11:52:07;;;;;;;18.53;10.63;;;;;;;;;;4465292;32;20239;-57
2021/12/16 11:54:38;;;;;;;19.83;10.73;;;;;;;;;;4465178;32;20258;-58
2021/12/16 11:57:14;;;;;;;20.70;10.67;;;;;;;;;;4465043;32;20318;-61
2021/12/16 11:59:44;;;;;;;23.20;13.23;;;;;;;;;;4464237;32;20262;-58
2021/12/16 12:02:32;;;;;;;35.63;19.33;;;;;;;;;;4464298;32;20225;-57
2021/12/16 12:05:19;;;;;;;23.03;13.93;;;;;;;;;;4449915;32;20645;-58
2021/12/16 12:08:08;;;;;;;15.37;8.80;;;;;;;;;;4460756;32;20341;-58
2021/12/16 12:10:46;;;;;;;25.63;12.27;;;;;;;;;;4463273;32;20247;-58
2021/12/16 12:13:33;;;;;;;41.67;19.47;;;;;;;;;;4464624;32;20216;-58
2021/12/16 12:16:04;;;;;;;16.03;10.33;;;;;;;;;;4465186;32;20215;-59
2021/12/16 12:18:50;;;;;;;51.27;21.93;;;;;;;;;;4463976;32;20266;-59
2021/12/16 12:21:36;;;;;;;68.97;29.43;;;;;;;;;;4463227;32;20777;-58
2021/12/16 12:24:32;;;;;;;26.90;13.37;;;;;;;;;;4462863;32;20715;-58
2021/12/16 12:27:11;;;;;;;148.67;57.20;;;;;;;;;;4449205;32;20632;-58
2021/12/16 12:29:42;;;;;;;48.33;19.50;;;;;;;;;;4449197;32;20633;-58
2021/12/16 12:32:18;;;;;;;33.63;16.27;;;;;;;;;;4449136;32;20220;-57
2021/12/16 12:34:49;;;;;;;26.83;15.00;;;;;;;;;;4452813;32;20243;-58
2021/12/16 12:37:19;;;;;;;48.23;19.47;;;;;;;;;;4465179;32;20316;-57
2021/12/16 12:39:51;;;;;;;28.87;12.07;;;;;;;;;;4464892;32;20307;-58
2021/12/16 12:42:17;;;;;;;31.33;13.23;;;;;;;;;;4464318;32;20223;-57
2021/12/16 12:44:44;;;;;;;16.80;9.33;;;;;;;;;;4463428;32;20304;-57
2021/12/16 12:47:15;;;;;;;29.27;10.10;;;;;;;;;;4463102;32;20276;-57
2021/12/16 12:49:41;;;;;;;20.27;9.83;;;;;;;;;;4463861;32;20258;-57
2021/12/16 12:52:11;;;;;;;19.70;10.03;;;;;;;;;;4464516;32;20238;-59
2021/12/16 12:54:39;;;;;;;31.17;15.67;;;;;;;;;;4462885;32;20232;-57
2021/12/16 12:57:22;;;;;;;44.57;23.03;;;;;;;;;;4464654;32;20311;-58
2021/12/16 12:59:48;;;;;;;17.33;10.03;;;;;;;;;;4448826;32;20224;-57
2021/12/16 13:02:16;;;;;;;35.93;15.23;;;;;;;;;;4448118;32;20269;-57
2021/12/16 13:05:08;;;;;;;33.87;15.67;;;;;;;;;;4449046;32;20308;-57
2021/12/16 13:07:43;;;;;;;23.70;10.63;;;;;;;;;;4454284;32;20232;-58
2021/12/16 13:10:11;;;;;;;46.00;23.83;;;;;;;;;;4450718;32;20257;-57
2021/12/16 13:12:51;;;;;;;18.73;9.90;;;;;;;;;;4463993;32;20204;-57
2021/12/16 13:23:59;;;;;;;18.37;10.17;;;;;;;;;;4453302;32;20270;-57
2021/12/16 13:26:44;;;;;;;16.73;7.80;;;;;;;;;;4464403;32;20212;-57
2021/12/16 13:29:28;;;;;;;12.57;7.73;;;;;;;;;;4463234;32;20219;-57
2021/12/16 13:35:00;;;;;;;14.07;7.00;;;;;;;;;;4453848;32;20262;-57
2021/12/16 13:37:33;;;;;;;13.63;8.80;;;;;;;;;;4462868;32;20314;-57
2021/12/16 13:40:07;;;;;;;12.67;8.50;;;;;;;;;;4464560;32;20189;-58
2021/12/16 13:42:41;;;;;;;18.50;10.20;;;;;;;;;;4448409;32;20275;-58
2021/12/16 13:45:50;;;;;;;15.40;8.70;;;;;;;;;;4448846;32;20200;-57
2021/12/16 14:02:27;;;;;;;31.53;13.87;;;;;;;;;;4452052;32;20220;-57
2021/12/16 14:05:41;;;;;;;25.87;10.63;;;;;;;;;;4454924;32;20568;-57
2021/12/16 14:08:04;;;;;;;19.37;11.47;;;;;;;;;;4461364;32;20283;-57
2021/12/16 14:10:45;;;;;;;20.50;11.37;;;;;;;;;;4462544;32;20223;-57
2021/12/16 14:16:22;;;;;;;22.93;11.70;;;;;;;;;;4461083;32;20649;-58
2021/12/16 14:41:38;;;;;;;43.83;21.30;;;;;;;;;;4463047;32;20203;-56
2021/12/16 14:46:45;;;;;;;51.97;26.43;;;;;;;;;;4463442;32;20271;-57
2021/12/16 14:49:10;;;;;;;62.70;29.17;;;;;;;;;;4463559;32;20245;-58
2021/12/16 14:51:36;;;;;;;56.27;28.20;;;;;;;;;;4463338;32;20262;-57
2021/12/16 14:54:01;;;;;;;50.53;29.10;;;;;;;;;;4463186;32;20533;-57
2021/12/16 14:56:36;;;;;;;63.80;31.00;;;;;;;;;;4461677;32;20313;-58
2021/12/16 14:59:11;;;;;;;54.40;27.07;;;;;;;;;;4461880;32;20227;-57
2021/12/16 15:01:43;;;;;;;38.20;19.23;;;;;;;;;;4461960;32;20620;-57
2021/12/16 15:04:14;;;;;;;9.73;5.73;;;;;;;;;;4462528;32;20652;-58
2021/12/16 15:07:03;;;;;;;10.20;7.47;;;;;;;;;;4460716;32;20236;-56
2021/12/16 15:09:34;;;;;;;12.00;7.73;;;;;;;;;;4461270;32;20295;-56
2021/12/16 15:12:19;;;;;;;10.30;6.63;;;;;;;;;;4460190;32;20369;-57
2021/12/16 15:17:34;;;;;;;15.47;10.47;;;;;;;;;;4462673;32;20221;-57
2021/12/16 15:39:43;;;;;;;55.70;10.57;;;;;;;;;;4448486;32;20361;-56
2021/12/16 15:45:01;;;;;;;10.73;8.03;;;;;;;;;;4447987;32;20690;-57
2021/12/16 15:47:27;;;;;;;15.80;9.60;;;;;;;;;;4447175;32;20603;-57
2021/12/16 15:49:54;;;;;;;27.73;8.40;;;;;;;;;;4448888;32;20311;-57
2021/12/16 15:52:20;;;;;;;10.97;6.83;;;;;;;;;;4448507;32;20332;-56
2021/12/16 15:54:49;;;;;;;14.00;6.93;;;;;;;;;;4453722;32;20851;-57
2021/12/16 15:57:16;;;;;;;9.63;6.40;;;;;;;;;;4462738;32;20390;-57
2021/12/16 15:59:48;;;;;;;18.20;10.37;;;;;;;;;;4463703;32;20239;-57
2021/12/16 16:02:16;;;;;;;15.57;8.63;;;;;;;;;;4463686;32;20220;-56
2021/12/16 16:04:42;;;;;;;9.57;7.50;;;;;;;;;;4463798;32;20246;-57
2021/12/16 16:07:13;;;;;;;17.87;10.70;;;;;;;;;;4464129;32;20541;-56
2021/12/16 16:09:46;;;;;;;17.07;11.30;;;;;;;;;;4461614;32;20341;-57
2021/12/16 16:12:17;;;;;;;13.60;8.23;;;;;;;;;;4457292;32;20334;-56
2021/12/16 16:14:49;;;;;;;13.93;9.90;;;;;;;;;;4458332;32;20664;-57
2021/12/16 16:17:22;;;;;;;17.07;11.87;;;;;;;;;;4449075;32;20544;-57
2021/12/16 16:19:51;;;;;;;22.00;13.30;;;;;;;;;;4463994;32;20244;-56
2021/12/16 16:22:17;;;;;;;20.37;12.50;;;;;;;;;;4463588;32;20212;-58
2021/12/16 16:24:47;;;;;;;20.57;11.00;;;;;;;;;;4463794;32;20251;-57
2021/12/16 16:27:15;;;;;;;27.43;15.83;;;;;;;;;;4463066;32;20537;-58
2021/12/16 16:29:47;;;;;;;27.03;17.27;;;;;;;;;;4463340;32;20300;-58
2021/12/16 16:32:13;;;;;;;46.23;27.90;;;;;;;;;;4462383;32;20236;-58
2021/12/16 16:34:42;;;;;;;38.83;21.57;;;;;;;;;;4463626;32;20254;-58
2021/12/16 16:37:08;;;;;;;23.53;13.37;;;;;;;;;;4463733;32;20209;-58
2021/12/16 16:39:41;;;;;;;23.83;12.60;;;;;;;;;;4463687;32;20224;-57
2021/12/16 16:42:10;;;;;;;43.87;21.27;;;;;;;;;;4463804;32;20220;-57
2021/12/16 16:44:37;;;;;;;42.97;21.23;;;;;;;;;;4461896;32;20323;-57
2021/12/16 16:47:17;;;;;;;37.83;20.07;;;;;;;;;;4452249;32;20251;-57
2021/12/16 16:49:49;;;;;;;37.20;18.57;;;;;;;;;;4446507;32;20251;-56
2021/12/16 16:52:25;;;;;;;38.47;21.67;;;;;;;;;;4459094;32;20295;-57
2021/12/16 16:55:13;;;;;;;48.23;23.00;;;;;;;;;;4462884;32;20280;-57
2021/12/16 16:57:47;;;;;;;31.03;17.10;;;;;;;;;;4463001;32;20526;-57
2021/12/16 17:00:24;;;;;;;58.20;29.70;;;;;;;;;;4462883;32;20242;-57
2021/12/16 17:03:03;;;;;;;57.37;28.67;;;;;;;;;;4463268;32;20212;-57
2021/12/16 17:05:40;;;;;;;59.20;30.50;;;;;;;;;;4463550;32;20195;-58
2021/12/16 17:08:11;;;;;;;85.20;39.67;;;;;;;;;;4461061;32;20418;-58
2021/12/16 17:10:39;;;;;;;34.37;19.03;;;;;;;;;;4461517;32;20240;-56
2021/12/16 17:13:25;;;;;;;30.93;17.60;;;;;;;;;;4459503;32;20221;-58
2021/12/16 17:18:27;;;;;;;45.27;24.53;;;;;;;;;;4456815;32;20292;-57
2021/12/16 17:20:55;;;;;;;40.20;22.13;;;;;;;;;;4461742;32;20239;-57
2021/12/16 17:23:22;;;;;;;72.67;32.30;;;;;;;;;;4461583;32;20320;-57
2021/12/16 17:25:48;;;;;;;97.93;43.50;;;;;;;;;;4461513;32;20564;-57
2021/12/16 17:28:14;;;;;;;43.50;23.83;;;;;;;;;;4462237;32;20587;-58
2021/12/16 17:30:44;;;;;;;64.50;33.70;;;;;;;;;;4459475;32;20672;-58
2021/12/16 17:33:12;;;;;;;54.67;28.33;;;;;;;;;;4460110;32;20580;-57
2021/12/16 17:35:41;;;;;;;28.03;15.73;;;;;;;;;;4462198;32;20212;-57
2021/12/16 17:38:15;;;;;;;30.93;17.17;;;;;;;;;;4460994;32;20258;-58
2021/12/16 17:40:44;;;;;;;28.83;12.57;;;;;;;;;;4460246;32;20278;-57
2021/12/16 17:43:14;;;;;;;40.07;17.33;;;;;;;;;;4461155;32;20236;-57
2021/12/16 17:45:50;;;;;;;25.43;13.23;;;;;;;;;;4448210;32;20240;-57
2021/12/16 17:48:21;;;;;;;36.93;16.20;;;;;;;;;;4456366;32;20328;-57
2021/12/16 17:50:53;;;;;;;32.63;18.93;;;;;;;;;;4461048;32;20220;-57
2021/12/16 17:53:20;;;;;;;42.90;16.43;;;;;;;;;;4461983;32;20224;-57
2021/12/16 17:55:52;;;;;;;26.60;14.43;;;;;;;;;;4462284;32;20719;-58
2021/12/16 17:58:27;;;;;;;56.17;32.50;;;;;;;;;;4462539;32;20282;-57
2021/12/16 18:01:06;;;;;;;80.00;42.13;;;;;;;;;;4461968;32;20650;-57
2021/12/16 18:03:35;;;;;;;64.77;34.20;;;;;;;;;;4460810;32;20228;-57
2021/12/16 18:06:04;;;;;;;53.77;28.00;;;;;;;;;;4462716;32;20311;-57
2021/12/16 18:08:40;;;;;;;64.23;35.43;;;;;;;;;;4461143;32;20228;-57
2021/12/16 18:11:16;;;;;;;86.20;41.03;;;;;;;;;;4460990;32;20311;-58
2021/12/16 18:13:43;;;;;;;43.57;21.10;;;;;;;;;;4455503;32;20251;-57
2021/12/16 18:16:22;;;;;;;40.60;20.17;;;;;;;;;;4446941;32;20660;-58
2021/12/16 18:18:50;;;;;;;34.00;18.43;;;;;;;;;;4458958;32;20250;-58
2021/12/16 18:21:16;;;;;;;21.63;13.40;;;;;;;;;;4462287;32;20751;-58
2021/12/16 18:23:52;;;;;;;24.40;14.63;;;;;;;;;;4461201;32;20228;-57
2021/12/16 18:26:18;;;;;;;23.00;13.57;;;;;;;;;;4462423;32;20211;-58
2021/12/16 18:28:47;;;;;;;21.37;14.73;;;;;;;;;;4461162;32;20322;-58
2021/12/16 18:31:28;;;;;;;26.63;16.10;;;;;;;;;;4462606;32;20545;-57
2021/12/16 18:33:56;;;;;;;38.17;18.80;;;;;;;;;;4462286;32;20249;-57
2021/12/16 18:36:33;;;;;;;23.60;15.63;;;;;;;;;;4462013;32;20226;-57
2021/12/16 18:39:13;;;;;;;27.30;15.33;;;;;;;;;;4462818;32;20220;-58
2021/12/16 18:41:52;;;;;;;30.50;14.43;;;;;;;;;;4460755;32;20216;-57
2021/12/16 18:44:30;;;;;;;17.30;10.40;;;;;;;;;;4450017;32;20297;-57